Terminal Aerodrome Forecast
Issued by NWS Omaha/Valley, NE

Home | Current Version | Previous Version | Text Only | Print | Product List | Glossary On
Versions: 1 2 3 4 5 6 7 8 9 10 11 12 13 14 15 16 17 18 19 20 21 22 23 24 25 26 27 28 29 30 31 32 33 34 35 36 37 38 39 40 41 42 43 44 45 46 47 48 49 50
000
FTUS43 KOAX 171905 AAN
TAFOFK
TAF AMD
KOFK 171905Z 1719/1818 08010KT P6SM OVC012
      TEMPO 1719/1721 OVC009
     FM172100 08011KT P6SM OVC020
      TEMPO 1721/1724 3SM -SHRA BKN012
     FM180100 10009KT P6SM OVC008
     FM180800 11005KT 5SM BR OVC004
     FM181500 11009KT P6SM OVC008=

USA.gov is the U.S. government's official web portal to all federal, state and local government web resources and services.